createdAt,value
2019-05-23T00:02:31.136Z,12.13
2019-05-23T00:08:31.251Z,12.65
2019-05-23T00:11:31.150Z,12.37
2019-05-23T00:17:11.941Z,11.75
2019-05-23T00:19:53.022Z,12.37
2019-05-23T00:22:33.811Z,11.57
2019-05-23T00:25:15.994Z,11.93
2019-05-23T00:27:57.122Z,11.78
2019-05-23T00:30:56.639Z,11.97
2019-05-23T00:33:39.562Z,12.78
2019-05-23T00:36:21.074Z,13.08
2019-05-23T00:39:03.208Z,12.05
2019-05-23T00:41:44.719Z,11.83
2019-05-23T00:44:25.723Z,11.65
2019-05-23T00:47:07.507Z,12.63
2019-05-23T00:49:49.610Z,11.38
2019-05-23T00:52:30.247Z,12.03
2019-05-23T00:55:10.900Z,12.10
2019-05-23T00:57:51.602Z,11.10
2019-05-23T01:00:32.307Z,10.55
2019-05-23T01:03:14.423Z,11.50
2019-05-23T01:05:55.384Z,12.85
2019-05-23T01:08:36.098Z,11.38
2019-05-23T01:11:17.231Z,12.63
2019-05-23T01:13:59.395Z,12.37
2019-05-23T01:16:40.435Z,12.15
2019-05-23T01:19:21.147Z,12.55
2019-05-23T01:22:07.430Z,13.38
2019-05-23T01:24:51.479Z,12.50
2019-05-23T01:27:20.607Z,12.45
2019-05-23T01:29:51.542Z,13.70
2019-05-23T01:32:27.350Z,12.37
2019-05-23T01:34:56.743Z,12.28
2019-05-23T01:37:26.086Z,13.18
2019-05-23T01:39:55.434Z,13.15
2019-05-23T01:42:26.032Z,12.63
2019-05-23T01:44:54.926Z,12.50
2019-05-23T01:47:23.976Z,12.28
2019-05-23T01:49:53.323Z,12.85
2019-05-23T01:52:22.090Z,12.05
2019-05-23T01:54:50.663Z,11.12
2019-05-23T01:57:19.744Z,10.98
2019-05-23T02:00:06.144Z,11.70
2019-05-23T02:02:20.984Z,10.63
2019-05-23T02:04:50.712Z,11.68
2019-05-23T02:07:19.855Z,10.95
2019-05-23T02:09:48.563Z,12.10
2019-05-23T02:12:17.779Z,11.60
2019-05-23T02:14:46.396Z,11.73
2019-05-23T02:17:14.983Z,11.43
2019-05-23T02:19:43.668Z,11.30
2019-05-23T02:22:13.126Z,10.58
2019-05-23T02:24:42.103Z,10.05
2019-05-23T02:27:11.803Z,9.88
2019-05-23T02:29:41.811Z,9.70
2019-05-23T02:32:11.251Z,9.78
2019-05-23T02:34:40.515Z,9.68
2019-05-23T02:37:17.013Z,10.13
2019-05-23T02:39:58.441Z,11.35
2019-05-23T02:42:34.450Z,10.20
2019-05-23T02:45:05.043Z,9.80
2019-05-23T02:47:39.494Z,9.33
2019-05-23T02:50:10.605Z,8.95
2019-05-23T02:52:46.217Z,9.43
2019-05-23T02:55:21.921Z,9.25
2019-05-23T02:57:51.920Z,10.40
2019-05-23T03:00:55.201Z,8.40
2019-05-23T03:03:25.834Z,8.55
2019-05-23T03:05:56.580Z,9.05
2019-05-23T03:08:25.306Z,9.40
2019-05-23T03:11:04.607Z,8.70
2019-05-23T03:13:34.094Z,8.75
2019-05-23T03:16:04.331Z,7.60
2019-05-23T03:18:40.520Z,8.38
2019-05-23T03:21:09.642Z,8.40
2019-05-23T03:23:38.510Z,8.75
2019-05-23T03:26:46.627Z,8.90
2019-05-23T03:29:15.920Z,8.35
2019-05-23T03:31:48.764Z,8.50
2019-05-23T03:34:20.638Z,7.83
2019-05-23T03:36:50.309Z,8.70
2019-05-23T03:39:19.783Z,8.43
2019-05-23T03:41:48.979Z,9.15
2019-05-23T03:44:18.212Z,9.00
2019-05-23T03:46:49.292Z,9.03
2019-05-23T03:49:19.865Z,9.25
2019-05-23T03:51:48.768Z,9.38
2019-05-23T03:54:18.104Z,9.03
2019-05-23T03:56:47.243Z,9.25
2019-05-23T03:59:15.824Z,9.08
2019-05-23T04:01:48.837Z,10.00
2019-05-23T04:04:18.223Z,10.05
2019-05-23T04:06:48.032Z,10.75
2019-05-23T04:09:16.679Z,10.35
2019-05-23T04:11:45.443Z,9.70
2019-05-23T04:14:14.243Z,9.60
2019-05-23T04:16:43.150Z,9.45
2019-05-23T04:19:12.235Z,9.28
2019-05-23T04:21:40.827Z,9.55
2019-05-23T04:24:10.648Z,11.03
2019-05-23T04:26:40.041Z,10.58
2019-05-23T04:29:08.860Z,9.98
2019-05-23T04:31:37.420Z,10.93
2019-05-23T04:34:07.373Z,10.48
2019-05-23T04:36:36.259Z,10.98
2019-05-23T04:39:06.496Z,11.05
2019-05-23T04:41:35.275Z,11.00
2019-05-23T04:44:04.213Z,11.60
2019-05-23T04:46:33.057Z,11.15
2019-05-23T04:49:02.257Z,11.15
2019-05-23T04:51:30.839Z,10.78
2019-05-23T04:53:59.722Z,11.18
2019-05-23T04:56:28.579Z,10.93
2019-05-23T04:58:57.743Z,10.48
2019-05-23T05:01:27.189Z,11.68
2019-05-23T05:03:56.171Z,11.93
2019-05-23T05:06:25.832Z,13.13
2019-05-23T05:08:55.547Z,12.70
2019-05-23T05:11:24.280Z,11.25
2019-05-23T05:13:52.871Z,11.50
2019-05-23T05:16:21.790Z,11.55
2019-05-23T05:18:50.802Z,12.40
2019-05-23T05:21:19.357Z,12.93
2019-05-23T05:23:48.164Z,12.40
2019-05-23T05:26:21.768Z,12.68
2019-05-23T05:28:51.462Z,11.78
2019-05-23T05:31:20.485Z,12.78
2019-05-23T05:33:49.056Z,12.25
2019-05-23T05:36:17.918Z,13.72
2019-05-23T05:38:47.683Z,15.38
2019-05-23T05:41:16.319Z,14.58
2019-05-23T05:43:44.891Z,14.80
2019-05-23T05:46:13.798Z,14.23
2019-05-23T05:48:42.953Z,14.58
2019-05-23T05:51:12.139Z,16.52
2019-05-23T05:53:41.779Z,16.32
2019-05-23T05:56:11.105Z,15.72
2019-05-23T05:58:40.079Z,16.02
2019-05-23T06:01:11.047Z,15.90
2019-05-23T06:03:40.938Z,16.37
2019-05-23T06:06:17.820Z,16.70
2019-05-23T06:08:48.097Z,17.80
2019-05-23T06:11:16.810Z,16.77
2019-05-23T06:13:45.895Z,16.70
2019-05-23T06:16:14.595Z,18.73
2019-05-23T06:18:43.285Z,17.32
2019-05-23T06:21:13.935Z,18.62
2019-05-23T06:23:43.718Z,17.48
2019-05-23T06:26:12.682Z,18.60
2019-05-23T06:28:41.571Z,18.98
2019-05-23T06:31:11.256Z,18.45
2019-05-23T06:33:39.911Z,18.60
2019-05-23T06:36:09.263Z,19.30
2019-05-23T06:38:37.827Z,18.48
2019-05-23T06:41:07.867Z,19.05
2019-05-23T06:43:36.631Z,19.40
2019-05-23T06:46:05.502Z,18.82
2019-05-23T06:48:34.432Z,19.80
2019-05-23T06:51:03.031Z,18.60
2019-05-23T06:53:31.692Z,18.05
2019-05-23T06:56:00.244Z,19.92
2019-05-23T06:58:29.035Z,19.02
2019-05-23T07:00:57.625Z,20.45
2019-05-23T07:03:40.570Z,19.25
2019-05-23T07:05:57.066Z,20.40
2019-05-23T07:08:26.269Z,20.52
2019-05-23T07:10:55.038Z,20.97
2019-05-23T07:13:24.474Z,21.77
2019-05-23T07:15:53.120Z,21.20
2019-05-23T07:18:21.720Z,20.77
2019-05-23T07:20:50.282Z,21.00
2019-05-23T07:23:18.963Z,20.70
2019-05-23T07:25:47.672Z,20.88
2019-05-23T07:28:16.635Z,19.87
2019-05-23T07:34:13.255Z,19.80
2019-05-23T07:37:01.595Z,19.25
2019-05-23T07:39:49.683Z,20.02
2019-05-23T07:42:37.767Z,20.23
2019-05-23T07:48:38.707Z,18.40
2019-05-23T07:51:29.667Z,17.07
2019-05-23T07:54:35.771Z,18.45
2019-05-23T08:03:29.138Z,17.05
2019-05-23T08:06:17.163Z,17.92
2019-05-23T08:12:01.432Z,17.82
2019-05-23T08:14:49.278Z,20.20
2019-05-23T08:20:46.263Z,21.93
2019-05-23T08:23:34.123Z,22.27
2019-05-23T08:26:17.385Z,21.17
2019-05-23T08:29:24.039Z,23.07
2019-05-23T08:31:41.055Z,21.87
2019-05-23T08:34:40.077Z,22.70
2019-05-23T08:37:06.430Z,23.12
2019-05-23T08:39:47.074Z,23.18
2019-05-23T08:42:29.095Z,22.27
2019-05-23T08:45:10.458Z,21.42
2019-05-23T08:47:51.559Z,22.10
2019-05-23T08:50:32.564Z,20.75
2019-05-23T08:53:13.151Z,19.15
2019-05-23T08:55:54.704Z,21.33
2019-05-23T08:58:35.664Z,23.38
2019-05-23T09:01:17.072Z,21.05
2019-05-23T09:03:57.709Z,20.32
2019-05-23T09:06:38.388Z,21.30
2019-05-23T09:09:29.297Z,19.85
2019-05-23T09:14:50.673Z,19.65
2019-05-23T09:20:14.280Z,19.12
2019-05-23T09:28:30.482Z,19.95
2019-05-23T09:31:14.720Z,19.32
2019-05-23T09:53:18.999Z,16.85
2019-05-23T09:55:59.610Z,13.15
2019-05-23T09:58:40.610Z,14.25
2019-05-23T10:01:21.820Z,14.20
2019-05-23T10:04:03.146Z,17.60
2019-05-23T10:06:46.313Z,16.55
2019-05-23T10:09:26.235Z,15.38
2019-05-23T10:12:06.884Z,15.95
2019-05-23T10:14:48.244Z,13.62
2019-05-23T10:17:29.217Z,14.95
2019-05-23T10:20:09.860Z,12.37
2019-05-23T10:22:50.329Z,14.35
2019-05-23T10:25:30.903Z,12.93
2019-05-23T10:28:12.206Z,14.20
2019-05-23T10:30:52.715Z,13.18
2019-05-23T10:33:33.277Z,13.72
2019-05-23T10:36:14.347Z,13.78
2019-05-23T10:38:54.591Z,14.55
2019-05-23T10:41:34.908Z,13.38
2019-05-23T10:44:15.729Z,12.70
2019-05-23T10:46:56.053Z,15.90
2019-05-23T10:49:36.881Z,14.38
2019-05-23T10:52:18.067Z,14.60
2019-05-23T10:54:58.870Z,12.35
2019-05-23T10:57:39.427Z,14.23
2019-05-23T11:00:21.812Z,14.20
2019-05-23T11:03:02.777Z,15.65
2019-05-23T11:05:43.280Z,17.25
2019-05-23T11:08:28.249Z,14.23
2019-05-23T11:11:07.289Z,16.75
2019-05-23T11:13:48.633Z,16.85
2019-05-23T11:16:29.144Z,15.30
2019-05-23T11:19:09.936Z,17.02
2019-05-23T11:21:50.471Z,16.90
2019-05-23T11:24:31.073Z,16.80
2019-05-23T11:27:12.084Z,14.35
2019-05-23T11:29:53.247Z,13.93
2019-05-23T11:32:33.553Z,14.33
2019-05-23T11:35:14.048Z,14.83
2019-05-23T11:37:55.059Z,13.95
2019-05-23T11:40:35.706Z,12.93
2019-05-23T11:43:16.581Z,11.20
2019-05-23T11:48:39.971Z,12.95
2019-05-23T11:51:25.243Z,11.95
2019-05-23T11:54:08.490Z,12.18
2019-05-23T11:56:46.927Z,11.68
2019-05-23T11:59:27.395Z,10.60
2019-05-23T12:02:27.540Z,9.23
2019-05-23T12:05:17.140Z,9.00
2019-05-23T12:07:58.685Z,10.85
2019-05-23T12:10:39.643Z,9.93
2019-05-23T12:13:20.437Z,8.30
2019-05-23T12:16:01.339Z,7.15
2019-05-23T12:18:42.352Z,8.03
2019-05-23T12:21:23.369Z,10.53
2019-05-23T12:24:04.379Z,7.17
2019-05-23T12:26:45.576Z,5.97
2019-05-23T12:29:26.184Z,8.00
2019-05-23T12:32:07.966Z,8.88
2019-05-23T12:35:08.711Z,6.40
2019-05-23T12:37:31.033Z,6.00
2019-05-23T12:40:12.408Z,6.00
2019-05-23T12:42:53.124Z,7.20
2019-05-23T12:45:33.805Z,7.83
2019-05-23T12:51:25.429Z,8.15
2019-05-23T12:54:06.511Z,10.75
2019-05-23T12:56:49.205Z,8.98
2019-05-23T13:02:16.806Z,7.78
2019-05-23T13:07:46.943Z,8.48
2019-05-23T13:10:27.415Z,9.43
2019-05-23T13:15:53.783Z,9.60
2019-05-23T13:35:02.636Z,9.90
2019-05-23T13:37:32.285Z,10.00
2019-05-23T13:40:01.153Z,9.50
2019-05-23T13:42:29.711Z,7.92
2019-05-23T13:44:58.646Z,8.53
2019-05-23T13:47:27.550Z,7.50
2019-05-23T13:49:56.520Z,9.33
2019-05-23T13:52:25.409Z,8.48
2019-05-23T13:54:53.958Z,8.13
2019-05-23T13:57:22.630Z,8.13
2019-05-23T13:59:51.222Z,6.28
2019-05-23T14:02:20.427Z,6.55
2019-05-23T14:04:49.474Z,8.00
2019-05-23T14:07:18.772Z,7.42
2019-05-23T14:09:47.812Z,7.78
2019-05-23T14:12:21.631Z,9.13
2019-05-23T14:14:47.995Z,8.18
2019-05-23T14:17:24.821Z,7.10
2019-05-23T14:19:54.065Z,6.10
2019-05-23T14:22:23.161Z,7.35
2019-05-23T14:24:51.754Z,6.92
2019-05-23T14:27:27.768Z,7.30
2019-05-23T14:29:56.394Z,7.72
2019-05-23T14:32:35.985Z,7.72
2019-05-23T14:35:04.954Z,7.60
2019-05-23T14:37:39.259Z,6.62
2019-05-23T14:40:10.610Z,8.65
2019-05-23T14:42:45.904Z,7.58
2019-05-23T14:45:32.470Z,7.20
2019-05-23T14:48:14.858Z,6.72
2019-05-23T14:50:58.371Z,7.62
2019-05-23T14:53:32.591Z,6.47
2019-05-23T14:56:01.147Z,5.70
2019-05-23T14:58:29.943Z,7.05
2019-05-23T15:00:58.796Z,7.55
2019-05-23T15:03:27.927Z,6.90
2019-05-23T15:05:56.784Z,6.40
2019-05-23T15:08:25.727Z,5.35
2019-05-23T15:10:54.627Z,6.40
2019-05-23T15:13:23.189Z,7.92
2019-05-23T15:15:51.771Z,6.22
2019-05-23T15:18:20.596Z,7.28
2019-05-23T15:20:49.778Z,7.70
2019-05-23T15:23:18.675Z,7.37
2019-05-23T15:25:47.780Z,7.00
2019-05-23T15:28:16.310Z,7.53
2019-05-23T15:30:45.345Z,7.17
2019-05-23T15:33:14.215Z,5.90
2019-05-23T15:35:43.208Z,7.53
2019-05-23T15:38:11.793Z,7.20
2019-05-23T15:40:40.562Z,7.85
2019-05-23T15:43:10.142Z,6.92
2019-05-23T15:45:39.074Z,5.35
2019-05-23T15:48:07.890Z,5.67
2019-05-23T15:50:50.433Z,6.87
2019-05-23T15:53:28.154Z,6.80
2019-05-23T15:56:16.503Z,6.70
2019-05-23T15:58:49.037Z,6.12
2019-05-23T16:01:36.699Z,6.53
2019-05-23T16:04:14.071Z,6.10
2019-05-23T16:06:43.279Z,6.30
2019-05-23T16:09:27.551Z,6.22
2019-05-23T16:11:43.439Z,5.22
2019-05-23T16:14:12.956Z,5.15
2019-05-23T16:16:41.712Z,5.50
2019-05-23T16:19:10.671Z,5.03
2019-05-23T16:21:40.707Z,6.03
2019-05-23T16:24:10.004Z,7.53
2019-05-23T16:26:39.406Z,5.33
2019-05-23T16:29:09.412Z,6.30
2019-05-23T16:31:38.604Z,7.80
2019-05-23T16:34:07.275Z,6.90
2019-05-23T16:36:37.084Z,5.90
2019-05-23T16:39:07.740Z,7.35
2019-05-23T16:41:36.309Z,7.10
2019-05-23T16:44:05.529Z,5.28
2019-05-23T16:46:34.079Z,6.83
2019-05-23T16:49:02.984Z,7.35
2019-05-23T16:51:32.016Z,7.67
2019-05-23T16:54:05.003Z,6.70
2019-05-23T16:56:52.811Z,6.37
2019-05-23T16:59:38.855Z,6.65
2019-05-23T17:02:14.419Z,6.03
2019-05-23T17:05:08.398Z,4.97
2019-05-23T17:07:36.195Z,6.12
2019-05-23T17:10:19.355Z,6.28
2019-05-23T17:13:07.088Z,6.85
2019-05-23T17:15:43.487Z,5.83
2019-05-23T17:18:31.771Z,6.85
2019-05-23T17:21:06.903Z,6.50
2019-05-23T17:23:55.998Z,4.65
2019-05-23T17:26:33.687Z,5.17
2019-05-23T17:29:03.711Z,5.50
2019-05-23T17:31:35.135Z,4.15
2019-05-23T17:34:03.971Z,4.70
2019-05-23T17:36:32.644Z,5.33
2019-05-23T17:39:01.363Z,5.50
2019-05-23T17:41:30.803Z,6.22
2019-05-23T17:43:59.696Z,4.25
2019-05-23T17:46:28.520Z,6.65
2019-05-23T17:48:57.147Z,5.28
2019-05-23T17:51:25.735Z,4.97
2019-05-23T17:53:54.951Z,4.35
2019-05-23T17:56:23.953Z,3.98
2019-05-23T17:58:52.796Z,5.30
2019-05-23T18:01:21.866Z,4.10
2019-05-23T18:03:50.818Z,5.92
2019-05-23T18:06:19.844Z,3.62
2019-05-23T18:08:49.419Z,4.65
2019-05-23T18:11:18.299Z,3.92
2019-05-23T18:13:47.254Z,5.50
2019-05-23T18:16:16.143Z,4.72
2019-05-23T18:18:44.758Z,4.22
2019-05-23T18:21:13.710Z,4.10
2019-05-23T18:23:42.436Z,4.17
2019-05-23T18:26:11.405Z,4.50
2019-05-23T18:28:40.538Z,5.00
2019-05-23T18:31:16.197Z,4.67
2019-05-23T18:33:45.807Z,4.30
2019-05-23T18:36:15.330Z,4.62
2019-05-23T18:38:44.272Z,4.30
2019-05-23T18:41:13.368Z,4.83
2019-05-23T18:43:43.119Z,4.72
2019-05-23T18:46:23.031Z,4.20
2019-05-23T18:48:51.611Z,4.80
2019-05-23T18:51:20.215Z,4.58
2019-05-23T18:53:48.787Z,4.47
2019-05-23T18:56:17.385Z,4.50
2019-05-23T18:58:45.952Z,4.30
2019-05-23T19:01:18.469Z,4.92
2019-05-23T19:03:47.051Z,4.70
2019-05-23T19:06:16.258Z,5.10
2019-05-23T19:08:44.894Z,4.83
2019-05-23T19:11:20.773Z,4.53
2019-05-23T19:13:44.479Z,5.10
2019-05-23T19:16:13.189Z,5.08
2019-05-23T19:18:41.817Z,5.45
2019-05-23T19:21:11.676Z,4.90
2019-05-23T19:23:40.563Z,5.40
2019-05-23T19:26:09.824Z,5.00
2019-05-23T19:28:39.540Z,5.37
2019-05-23T19:31:08.094Z,5.10
2019-05-23T19:45:47.396Z,5.70
2019-05-23T19:54:19.527Z,5.53
2019-05-23T19:57:07.527Z,5.53
2019-05-23T19:59:55.673Z,5.65
2019-05-23T20:05:42.100Z,5.75
2019-05-23T20:08:30.535Z,5.50
2019-05-23T20:11:18.386Z,6.67
2019-05-23T20:14:06.236Z,6.83
2019-05-23T20:16:54.086Z,5.92
2019-05-23T20:19:41.923Z,6.42
2019-05-23T20:22:29.779Z,6.90
2019-05-23T20:25:18.351Z,7.17
2019-05-23T20:27:59.180Z,7.17
2019-05-23T20:30:39.983Z,6.40
2019-05-23T20:33:21.658Z,7.47
2019-05-23T20:38:45.101Z,7.45
2019-05-23T20:41:26.481Z,7.05
2019-05-23T20:44:07.696Z,7.50
2019-05-23T20:46:48.256Z,7.67
2019-05-23T20:49:29.037Z,8.03
2019-05-23T20:52:09.603Z,7.65
2019-05-23T20:54:50.144Z,8.00
2019-05-23T20:57:30.708Z,7.50
2019-05-23T21:00:12.935Z,6.92
2019-05-23T21:02:54.220Z,7.92
2019-05-23T21:08:20.813Z,7.65
2019-05-23T21:13:47.464Z,7.60
2019-05-23T21:19:17.668Z,8.25
2019-05-23T21:24:40.551Z,7.47
2019-05-23T21:55:19.226Z,7.90
2019-05-23T22:03:52.348Z,8.43
2019-05-23T22:06:34.807Z,8.08
2019-05-23T22:09:14.346Z,8.55
2019-05-23T22:15:32.046Z,7.58
2019-05-23T22:21:28.563Z,8.53
2019-05-23T22:27:17.888Z,9.13
2019-05-23T22:29:58.861Z,9.33
2019-05-23T22:32:39.506Z,9.45
2019-05-23T22:35:20.633Z,9.35
2019-05-23T22:38:01.414Z,9.35
2019-05-23T22:40:41.650Z,9.58
2019-05-23T22:43:23.122Z,8.18
2019-05-23T22:46:03.584Z,9.08
2019-05-23T22:48:44.281Z,8.93
2019-05-23T22:51:25.183Z,9.10
2019-05-23T22:54:06.095Z,9.58
2019-05-23T22:56:46.474Z,9.88
2019-05-23T22:59:27.052Z,9.68
2019-05-23T23:02:11.838Z,9.28
2019-05-23T23:04:52.635Z,9.95
2019-05-23T23:07:33.941Z,9.43
2019-05-23T23:10:14.660Z,9.63
2019-05-23T23:12:53.855Z,9.90
2019-05-23T23:15:41.713Z,10.32
2019-05-23T23:18:29.796Z,9.65
2019-05-23T23:21:17.651Z,10.35
2019-05-23T23:24:05.496Z,9.70
2019-05-23T23:26:46.370Z,11.35
2019-05-23T23:29:26.951Z,10.03
2019-05-23T23:32:08.353Z,10.68
2019-05-23T23:34:49.135Z,10.35
2019-05-23T23:37:29.835Z,9.78
2019-05-23T23:40:10.370Z,9.90
2019-05-23T23:42:55.411Z,10.38
2019-05-23T23:48:38.363Z,10.18
2019-05-23T23:54:47.316Z,10.05
2019-05-23T23:57:47.487Z,10.32
